sensor_id;sensor_type;location;lat;lon;timestamp;P1;durP1;ratioP1;P2;durP2;ratioP2
62844;SDS011;48929;47.910;20.390;2023-05-10T00:02:01;8.95;;;4.20;;
62844;SDS011;48929;47.910;20.390;2023-05-10T00:04:30;7.20;;;3.88;;
62844;SDS011;48929;47.910;20.390;2023-05-10T00:07:01;6.18;;;3.75;;
62844;SDS011;48929;47.910;20.390;2023-05-10T00:09:32;6.05;;;3.50;;
62844;SDS011;48929;47.910;20.390;2023-05-10T00:12:01;5.05;;;3.67;;
62844;SDS011;48929;47.910;20.390;2023-05-10T00:14:33;7.63;;;4.30;;
62844;SDS011;48929;47.910;20.390;2023-05-10T00:17:01;5.97;;;3.83;;
62844;SDS011;48929;47.910;20.390;2023-05-10T00:19:33;8.45;;;4.05;;
62844;SDS011;48929;47.910;20.390;2023-05-10T00:22:03;7.15;;;3.90;;
62844;SDS011;48929;47.910;20.390;2023-05-10T00:24:40;5.60;;;3.87;;
62844;SDS011;48929;47.910;20.390;2023-05-10T00:27:09;6.35;;;3.53;;
62844;SDS011;48929;47.910;20.390;2023-05-10T00:29:38;5.95;;;3.80;;
62844;SDS011;48929;47.910;20.390;2023-05-10T00:32:08;5.68;;;3.95;;
62844;SDS011;48929;47.910;20.390;2023-05-10T00:34:40;6.70;;;3.95;;
62844;SDS011;48929;47.910;20.390;2023-05-10T00:37:12;5.85;;;4.07;;
62844;SDS011;48929;47.910;20.390;2023-05-10T00:39:41;5.72;;;3.60;;
62844;SDS011;48929;47.910;20.390;2023-05-10T00:42:10;6.75;;;4.10;;
62844;SDS011;48929;47.910;20.390;2023-05-10T00:44:53;8.60;;;4.03;;
62844;SDS011;48929;47.910;20.390;2023-05-10T00:47:23;6.25;;;3.72;;
62844;SDS011;48929;47.910;20.390;2023-05-10T00:49:52;6.78;;;4.20;;
62844;SDS011;48929;47.910;20.390;2023-05-10T00:52:23;8.13;;;4.07;;
62844;SDS011;48929;47.910;20.390;2023-05-10T00:55:11;5.78;;;3.85;;
62844;SDS011;48929;47.910;20.390;2023-05-10T00:57:40;7.25;;;4.30;;
62844;SDS011;48929;47.910;20.390;2023-05-10T01:00:10;6.07;;;3.80;;
62844;SDS011;48929;47.910;20.390;2023-05-10T01:02:44;6.85;;;4.32;;
62844;SDS011;48929;47.910;20.390;2023-05-10T01:05:17;7.30;;;4.20;;
62844;SDS011;48929;47.910;20.390;2023-05-10T01:07:55;5.47;;;3.97;;
62844;SDS011;48929;47.910;20.390;2023-05-10T01:10:24;7.22;;;4.00;;
62844;SDS011;48929;47.910;20.390;2023-05-10T01:12:53;6.20;;;3.95;;
62844;SDS011;48929;47.910;20.390;2023-05-10T01:15:23;6.35;;;3.97;;
62844;SDS011;48929;47.910;20.390;2023-05-10T01:17:54;8.40;;;4.22;;
62844;SDS011;48929;47.910;20.390;2023-05-10T01:20:24;6.57;;;4.20;;
62844;SDS011;48929;47.910;20.390;2023-05-10T01:23:22;6.93;;;4.18;;
62844;SDS011;48929;47.910;20.390;2023-05-10T01:26:30;6.57;;;4.32;;
62844;SDS011;48929;47.910;20.390;2023-05-10T01:29:24;6.07;;;4.07;;
62844;SDS011;48929;47.910;20.390;2023-05-10T01:32:11;7.25;;;4.20;;
62844;SDS011;48929;47.910;20.390;2023-05-10T01:34:59;6.30;;;3.72;;
62844;SDS011;48929;47.910;20.390;2023-05-10T01:37:33;6.60;;;4.27;;
62844;SDS011;48929;47.910;20.390;2023-05-10T01:40:11;6.78;;;4.20;;
62844;SDS011;48929;47.910;20.390;2023-05-10T01:42:47;6.43;;;4.10;;
62844;SDS011;48929;47.910;20.390;2023-05-10T01:45:21;6.95;;;4.20;;
62844;SDS011;48929;47.910;20.390;2023-05-10T01:48:02;6.22;;;4.00;;
62844;SDS011;48929;47.910;20.390;2023-05-10T01:50:34;6.22;;;3.78;;
62844;SDS011;48929;47.910;20.390;2023-05-10T01:53:06;7.18;;;4.07;;
62844;SDS011;48929;47.910;20.390;2023-05-10T01:55:39;6.88;;;4.40;;
62844;SDS011;48929;47.910;20.390;2023-05-10T01:58:15;6.85;;;4.18;;
62844;SDS011;48929;47.910;20.390;2023-05-10T02:00:48;6.75;;;4.30;;
62844;SDS011;48929;47.910;20.390;2023-05-10T02:03:20;6.38;;;4.13;;
62844;SDS011;48929;47.910;20.390;2023-05-10T02:05:53;6.97;;;4.20;;
62844;SDS011;48929;47.910;20.390;2023-05-10T02:08:23;7.35;;;4.13;;
62844;SDS011;48929;47.910;20.390;2023-05-10T02:10:53;6.85;;;3.97;;
62844;SDS011;48929;47.910;20.390;2023-05-10T02:13:24;8.05;;;3.75;;
62844;SDS011;48929;47.910;20.390;2023-05-10T02:16:05;5.70;;;4.20;;
62844;SDS011;48929;47.910;20.390;2023-05-10T02:18:37;7.75;;;4.07;;
62844;SDS011;48929;47.910;20.390;2023-05-10T02:21:08;6.30;;;3.83;;
62844;SDS011;48929;47.910;20.390;2023-05-10T02:23:39;6.82;;;4.43;;
62844;SDS011;48929;47.910;20.390;2023-05-10T02:26:14;6.57;;;4.13;;
62844;SDS011;48929;47.910;20.390;2023-05-10T02:28:45;6.10;;;4.10;;
62844;SDS011;48929;47.910;20.390;2023-05-10T02:31:14;7.32;;;4.00;;
62844;SDS011;48929;47.910;20.390;2023-05-10T02:33:45;5.65;;;3.75;;
62844;SDS011;48929;47.910;20.390;2023-05-10T02:36:17;6.20;;;3.70;;
62844;SDS011;48929;47.910;20.390;2023-05-10T02:38:47;7.80;;;4.18;;
62844;SDS011;48929;47.910;20.390;2023-05-10T02:41:19;7.32;;;4.38;;
62844;SDS011;48929;47.910;20.390;2023-05-10T02:43:50;6.75;;;4.45;;
62844;SDS011;48929;47.910;20.390;2023-05-10T02:46:24;7.32;;;4.53;;
62844;SDS011;48929;47.910;20.390;2023-05-10T02:48:55;6.32;;;4.20;;
62844;SDS011;48929;47.910;20.390;2023-05-10T02:51:24;7.40;;;4.10;;
62844;SDS011;48929;47.910;20.390;2023-05-10T02:53:56;7.43;;;4.28;;
62844;SDS011;48929;47.910;20.390;2023-05-10T02:56:30;8.15;;;4.50;;
62844;SDS011;48929;47.910;20.390;2023-05-10T02:59:05;6.35;;;4.22;;
62844;SDS011;48929;47.910;20.390;2023-05-10T03:01:35;8.05;;;4.22;;
62844;SDS011;48929;47.910;20.390;2023-05-10T03:04:05;6.78;;;4.45;;
62844;SDS011;48929;47.910;20.390;2023-05-10T03:06:34;6.88;;;4.22;;
62844;SDS011;48929;47.910;20.390;2023-05-10T03:09:03;5.90;;;4.03;;
62844;SDS011;48929;47.910;20.390;2023-05-10T03:11:37;7.05;;;4.28;;
62844;SDS011;48929;47.910;20.390;2023-05-10T03:14:21;7.22;;;3.83;;
62844;SDS011;48929;47.910;20.390;2023-05-10T03:17:10;6.03;;;4.25;;
62844;SDS011;48929;47.910;20.390;2023-05-10T03:19:47;6.80;;;4.32;;
62844;SDS011;48929;47.910;20.390;2023-05-10T03:22:23;6.80;;;4.38;;
62844;SDS011;48929;47.910;20.390;2023-05-10T03:24:55;8.10;;;4.40;;
62844;SDS011;48929;47.910;20.390;2023-05-10T03:27:26;7.95;;;4.30;;
62844;SDS011;48929;47.910;20.390;2023-05-10T03:29:56;6.25;;;4.28;;
62844;SDS011;48929;47.910;20.390;2023-05-10T03:32:26;6.55;;;4.28;;
62844;SDS011;48929;47.910;20.390;2023-05-10T03:35:01;6.57;;;4.00;;
62844;SDS011;48929;47.910;20.390;2023-05-10T03:37:39;6.70;;;4.15;;
62844;SDS011;48929;47.910;20.390;2023-05-10T03:40:08;8.35;;;3.90;;
62844;SDS011;48929;47.910;20.390;2023-05-10T03:42:40;7.18;;;4.22;;
62844;SDS011;48929;47.910;20.390;2023-05-10T03:45:15;5.88;;;3.85;;
62844;SDS011;48929;47.910;20.390;2023-05-10T03:47:54;7.20;;;4.13;;
62844;SDS011;48929;47.910;20.390;2023-05-10T03:50:27;7.15;;;3.92;;
62844;SDS011;48929;47.910;20.390;2023-05-10T03:53:01;6.13;;;4.07;;
62844;SDS011;48929;47.910;20.390;2023-05-10T03:55:36;6.85;;;4.45;;
62844;SDS011;48929;47.910;20.390;2023-05-10T03:58:10;6.95;;;4.18;;
62844;SDS011;48929;47.910;20.390;2023-05-10T04:00:43;5.95;;;3.95;;
62844;SDS011;48929;47.910;20.390;2023-05-10T04:03:20;6.47;;;4.10;;
62844;SDS011;48929;47.910;20.390;2023-05-10T04:06:01;6.70;;;4.15;;
62844;SDS011;48929;47.910;20.390;2023-05-10T04:08:57;6.72;;;4.28;;
62844;SDS011;48929;47.910;20.390;2023-05-10T04:11:33;8.15;;;4.22;;
62844;SDS011;48929;47.910;20.390;2023-05-10T04:14:02;7.93;;;4.30;;
62844;SDS011;48929;47.910;20.390;2023-05-10T04:16:32;6.97;;;4.20;;
62844;SDS011;48929;47.910;20.390;2023-05-10T04:19:01;7.07;;;3.85;;
62844;SDS011;48929;47.910;20.390;2023-05-10T04:21:32;7.15;;;4.60;;
62844;SDS011;48929;47.910;20.390;2023-05-10T04:24:01;7.47;;;4.57;;
62844;SDS011;48929;47.910;20.390;2023-05-10T04:26:33;7.18;;;4.38;;
62844;SDS011;48929;47.910;20.390;2023-05-10T04:29:02;6.45;;;4.10;;
62844;SDS011;48929;47.910;20.390;2023-05-10T04:31:31;7.47;;;4.53;;
62844;SDS011;48929;47.910;20.390;2023-05-10T04:34:05;6.82;;;4.35;;
62844;SDS011;48929;47.910;20.390;2023-05-10T04:36:41;6.75;;;4.03;;
62844;SDS011;48929;47.910;20.390;2023-05-10T04:39:14;6.57;;;4.03;;
62844;SDS011;48929;47.910;20.390;2023-05-10T04:41:53;5.93;;;4.15;;
62844;SDS011;48929;47.910;20.390;2023-05-10T04:44:22;6.30;;;4.30;;
62844;SDS011;48929;47.910;20.390;2023-05-10T04:46:51;6.07;;;4.22;;
62844;SDS011;48929;47.910;20.390;2023-05-10T04:49:20;6.18;;;4.38;;
62844;SDS011;48929;47.910;20.390;2023-05-10T04:51:52;7.63;;;4.60;;
62844;SDS011;48929;47.910;20.390;2023-05-10T04:54:20;6.80;;;4.20;;
62844;SDS011;48929;47.910;20.390;2023-05-10T04:56:51;6.82;;;4.30;;
62844;SDS011;48929;47.910;20.390;2023-05-10T04:59:37;7.45;;;4.40;;
62844;SDS011;48929;47.910;20.390;2023-05-10T05:02:10;6.68;;;4.63;;
62844;SDS011;48929;47.910;20.390;2023-05-10T05:04:39;7.72;;;4.80;;
62844;SDS011;48929;47.910;20.390;2023-05-10T05:07:15;8.95;;;4.60;;
62844;SDS011;48929;47.910;20.390;2023-05-10T05:09:46;7.97;;;4.10;;
62844;SDS011;48929;47.910;20.390;2023-05-10T05:12:18;6.15;;;3.80;;
62844;SDS011;48929;47.910;20.390;2023-05-10T05:15:08;8.07;;;4.18;;
62844;SDS011;48929;47.910;20.390;2023-05-10T05:17:38;6.80;;;4.28;;
62844;SDS011;48929;47.910;20.390;2023-05-10T05:20:08;5.60;;;4.18;;
62844;SDS011;48929;47.910;20.390;2023-05-10T05:22:39;7.40;;;4.68;;
62844;SDS011;48929;47.910;20.390;2023-05-10T05:25:09;6.30;;;4.32;;
62844;SDS011;48929;47.910;20.390;2023-05-10T05:27:38;7.72;;;4.53;;
62844;SDS011;48929;47.910;20.390;2023-05-10T05:30:10;7.35;;;4.30;;
62844;SDS011;48929;47.910;20.390;2023-05-10T05:32:42;5.97;;;4.15;;
62844;SDS011;48929;47.910;20.390;2023-05-10T05:35:11;7.60;;;4.60;;
62844;SDS011;48929;47.910;20.390;2023-05-10T05:37:45;6.13;;;4.55;;
62844;SDS011;48929;47.910;20.390;2023-05-10T05:40:17;6.15;;;4.50;;
62844;SDS011;48929;47.910;20.390;2023-05-10T05:42:58;7.15;;;4.95;;
62844;SDS011;48929;47.910;20.390;2023-05-10T05:45:29;9.40;;;6.10;;
62844;SDS011;48929;47.910;20.390;2023-05-10T05:48:04;8.55;;;5.22;;
62844;SDS011;48929;47.910;20.390;2023-05-10T05:50:33;8.23;;;5.53;;
62844;SDS011;48929;47.910;20.390;2023-05-10T05:53:04;7.80;;;5.22;;
62844;SDS011;48929;47.910;20.390;2023-05-10T05:55:33;7.47;;;4.90;;
62844;SDS011;48929;47.910;20.390;2023-05-10T05:58:10;8.48;;;4.78;;
62844;SDS011;48929;47.910;20.390;2023-05-10T06:00:41;8.60;;;5.03;;
62844;SDS011;48929;47.910;20.390;2023-05-10T06:03:09;7.93;;;4.97;;
62844;SDS011;48929;47.910;20.390;2023-05-10T06:05:39;10.13;;;5.13;;
62844;SDS011;48929;47.910;20.390;2023-05-10T06:08:13;8.18;;;4.82;;
62844;SDS011;48929;47.910;20.390;2023-05-10T06:10:42;9.60;;;4.57;;
62844;SDS011;48929;47.910;20.390;2023-05-10T06:13:12;6.55;;;4.32;;
62844;SDS011;48929;47.910;20.390;2023-05-10T06:15:40;9.57;;;4.55;;
62844;SDS011;48929;47.910;20.390;2023-05-10T06:18:11;7.25;;;4.55;;
62844;SDS011;48929;47.910;20.390;2023-05-10T06:20:41;7.80;;;4.72;;
62844;SDS011;48929;47.910;20.390;2023-05-10T06:23:21;7.50;;;5.07;;
62844;SDS011;48929;47.910;20.390;2023-05-10T06:26:10;9.35;;;4.55;;
62844;SDS011;48929;47.910;20.390;2023-05-10T06:28:46;6.47;;;4.40;;
62844;SDS011;48929;47.910;20.390;2023-05-10T06:31:51;7.63;;;4.55;;
62844;SDS011;48929;47.910;20.390;2023-05-10T06:34:36;7.72;;;4.70;;
62844;SDS011;48929;47.910;20.390;2023-05-10T06:37:25;6.22;;;4.72;;
62844;SDS011;48929;47.910;20.390;2023-05-10T06:43:17;7.10;;;4.70;;
62844;SDS011;48929;47.910;20.390;2023-05-10T06:45:56;6.50;;;4.70;;
62844;SDS011;48929;47.910;20.390;2023-05-10T06:48:42;9.63;;;4.80;;
62844;SDS011;48929;47.910;20.390;2023-05-10T06:51:29;9.18;;;4.53;;
62844;SDS011;48929;47.910;20.390;2023-05-10T06:54:33;6.93;;;4.68;;
62844;SDS011;48929;47.910;20.390;2023-05-10T06:57:11;6.35;;;4.68;;
62844;SDS011;48929;47.910;20.390;2023-05-10T07:00:14;6.95;;;4.65;;
62844;SDS011;48929;47.910;20.390;2023-05-10T07:03:13;6.53;;;4.75;;
62844;SDS011;48929;47.910;20.390;2023-05-10T07:06:28;7.35;;;4.80;;
62844;SDS011;48929;47.910;20.390;2023-05-10T07:09:40;6.30;;;4.30;;
62844;SDS011;48929;47.910;20.390;2023-05-10T07:12:31;7.43;;;4.20;;
62844;SDS011;48929;47.910;20.390;2023-05-10T07:15:24;5.28;;;3.90;;
62844;SDS011;48929;47.910;20.390;2023-05-10T07:18:36;6.75;;;4.28;;
62844;SDS011;48929;47.910;20.390;2023-05-10T07:21:22;6.63;;;4.47;;
62844;SDS011;48929;47.910;20.390;2023-05-10T07:24:10;6.63;;;4.45;;
62844;SDS011;48929;47.910;20.390;2023-05-10T07:27:02;5.78;;;4.55;;
62844;SDS011;48929;47.910;20.390;2023-05-10T07:29:50;7.50;;;4.85;;
62844;SDS011;48929;47.910;20.390;2023-05-10T07:32:43;9.23;;;4.50;;
62844;SDS011;48929;47.910;20.390;2023-05-10T07:35:45;7.32;;;4.35;;
62844;SDS011;48929;47.910;20.390;2023-05-10T07:38:41;6.38;;;4.50;;
62844;SDS011;48929;47.910;20.390;2023-05-10T07:42:02;6.32;;;4.10;;
62844;SDS011;48929;47.910;20.390;2023-05-10T07:45:07;6.70;;;4.40;;
62844;SDS011;48929;47.910;20.390;2023-05-10T07:48:18;7.28;;;4.72;;
62844;SDS011;48929;47.910;20.390;2023-05-10T07:51:14;6.60;;;4.55;;
62844;SDS011;48929;47.910;20.390;2023-05-10T07:54:16;6.32;;;4.78;;
62844;SDS011;48929;47.910;20.390;2023-05-10T07:57:11;7.55;;;4.75;;
62844;SDS011;48929;47.910;20.390;2023-05-10T08:00:07;6.32;;;4.47;;
62844;SDS011;48929;47.910;20.390;2023-05-10T08:02:56;7.75;;;5.00;;
62844;SDS011;48929;47.910;20.390;2023-05-10T08:05:59;7.85;;;5.28;;
62844;SDS011;48929;47.910;20.390;2023-05-10T08:09:09;6.93;;;4.95;;
62844;SDS011;48929;47.910;20.390;2023-05-10T08:13:51;7.15;;;4.68;;
62844;SDS011;48929;47.910;20.390;2023-05-10T08:16:16;8.30;;;5.45;;
62844;SDS011;48929;47.910;20.390;2023-05-10T08:19:31;7.47;;;5.18;;
62844;SDS011;48929;47.910;20.390;2023-05-10T08:32:04;6.78;;;5.20;;
62844;SDS011;48929;47.910;20.390;2023-05-10T08:35:10;6.85;;;4.93;;
62844;SDS011;48929;47.910;20.390;2023-05-10T08:38:11;8.43;;;5.38;;
62844;SDS011;48929;47.910;20.390;2023-05-10T08:41:42;6.95;;;5.07;;
62844;SDS011;48929;47.910;20.390;2023-05-10T08:44:25;7.15;;;5.18;;
62844;SDS011;48929;47.910;20.390;2023-05-10T08:47:48;6.88;;;4.78;;
62844;SDS011;48929;47.910;20.390;2023-05-10T08:51:13;7.63;;;4.88;;
62844;SDS011;48929;47.910;20.390;2023-05-10T08:54:27;7.05;;;5.00;;
62844;SDS011;48929;47.910;20.390;2023-05-10T08:58:08;6.78;;;5.03;;
62844;SDS011;48929;47.910;20.390;2023-05-10T09:01:20;6.72;;;4.40;;
62844;SDS011;48929;47.910;20.390;2023-05-10T09:04:24;7.55;;;4.80;;
62844;SDS011;48929;47.910;20.390;2023-05-10T09:07:27;7.57;;;4.70;;
62844;SDS011;48929;47.910;20.390;2023-05-10T09:11:32;6.25;;;4.50;;
62844;SDS011;48929;47.910;20.390;2023-05-10T09:13:37;8.23;;;4.82;;
62844;SDS011;48929;47.910;20.390;2023-05-10T09:16:42;7.55;;;4.78;;
62844;SDS011;48929;47.910;20.390;2023-05-10T09:20:12;5.90;;;4.47;;
62844;SDS011;48929;47.910;20.390;2023-05-10T09:23:11;6.05;;;4.50;;
62844;SDS011;48929;47.910;20.390;2023-05-10T09:26:47;5.95;;;4.65;;
62844;SDS011;48929;47.910;20.390;2023-05-10T09:29:49;5.57;;;4.13;;
62844;SDS011;48929;47.910;20.390;2023-05-10T09:34:44;5.95;;;4.53;;
62844;SDS011;48929;47.910;20.390;2023-05-10T09:36:19;6.20;;;4.72;;
62844;SDS011;48929;47.910;20.390;2023-05-10T09:39:47;5.80;;;4.30;;
62844;SDS011;48929;47.910;20.390;2023-05-10T09:43:23;4.85;;;3.70;;
62844;SDS011;48929;47.910;20.390;2023-05-10T09:50:03;5.55;;;3.67;;
62844;SDS011;48929;47.910;20.390;2023-05-10T09:56:26;4.90;;;3.60;;
62844;SDS011;48929;47.910;20.390;2023-05-10T10:00:41;5.22;;;3.88;;
62844;SDS011;48929;47.910;20.390;2023-05-10T10:05:51;5.15;;;3.40;;
62844;SDS011;48929;47.910;20.390;2023-05-10T10:08:28;5.60;;;3.50;;
62844;SDS011;48929;47.910;20.390;2023-05-10T10:15:08;8.45;;;3.88;;
62844;SDS011;48929;47.910;20.390;2023-05-10T10:21:34;5.32;;;3.60;;
62844;SDS011;48929;47.910;20.390;2023-05-10T10:25:10;5.50;;;4.28;;
62844;SDS011;48929;47.910;20.390;2023-05-10T10:28:19;8.27;;;4.07;;
62844;SDS011;48929;47.910;20.390;2023-05-10T10:31:49;7.47;;;3.88;;
62844;SDS011;48929;47.910;20.390;2023-05-10T10:34:51;6.90;;;4.38;;
62844;SDS011;48929;47.910;20.390;2023-05-10T10:38:11;5.15;;;3.80;;
62844;SDS011;48929;47.910;20.390;2023-05-10T10:45:27;7.25;;;4.20;;
62844;SDS011;48929;47.910;20.390;2023-05-10T10:48:27;5.93;;;3.78;;
62844;SDS011;48929;47.910;20.390;2023-05-10T10:55:32;5.82;;;3.92;;
62844;SDS011;48929;47.910;20.390;2023-05-10T11:06:30;8.70;;;4.18;;
62844;SDS011;48929;47.910;20.390;2023-05-10T11:09:13;5.07;;;3.90;;
62844;SDS011;48929;47.910;20.390;2023-05-10T11:11:50;5.30;;;3.73;;
62844;SDS011;48929;47.910;20.390;2023-05-10T11:14:38;8.25;;;4.20;;
62844;SDS011;48929;47.910;20.390;2023-05-10T11:17:45;5.53;;;4.05;;
62844;SDS011;48929;47.910;20.390;2023-05-10T11:21:15;5.35;;;3.70;;
62844;SDS011;48929;47.910;20.390;2023-05-10T11:27:08;6.13;;;4.07;;
62844;SDS011;48929;47.910;20.390;2023-05-10T11:29:53;5.43;;;3.90;;
62844;SDS011;48929;47.910;20.390;2023-05-10T11:32:24;5.80;;;3.88;;
62844;SDS011;48929;47.910;20.390;2023-05-10T11:34:56;4.63;;;3.55;;
62844;SDS011;48929;47.910;20.390;2023-05-10T11:37:57;6.90;;;4.40;;
62844;SDS011;48929;47.910;20.390;2023-05-10T11:40:37;5.70;;;3.80;;
62844;SDS011;48929;47.910;20.390;2023-05-10T11:43:23;5.50;;;3.70;;
62844;SDS011;48929;47.910;20.390;2023-05-10T11:46:10;6.07;;;4.25;;
62844;SDS011;48929;47.910;20.390;2023-05-10T11:49:09;4.60;;;3.63;;
62844;SDS011;48929;47.910;20.390;2023-05-10T11:52:03;5.32;;;3.83;;
62844;SDS011;48929;47.910;20.390;2023-05-10T12:03:27;4.22;;;3.20;;
62844;SDS011;48929;47.910;20.390;2023-05-10T12:06:13;5.18;;;3.67;;
62844;SDS011;48929;47.910;20.390;2023-05-10T12:10:02;5.60;;;3.50;;
62844;SDS011;48929;47.910;20.390;2023-05-10T12:12:52;6.65;;;3.63;;
62844;SDS011;48929;47.910;20.390;2023-05-10T12:16:00;4.53;;;3.38;;
62844;SDS011;48929;47.910;20.390;2023-05-10T12:19:03;4.13;;;3.03;;
62844;SDS011;48929;47.910;20.390;2023-05-10T12:21:35;4.13;;;3.13;;
62844;SDS011;48929;47.910;20.390;2023-05-10T12:24:33;6.90;;;2.50;;
62844;SDS011;48929;47.910;20.390;2023-05-10T12:27:33;4.97;;;2.70;;
62844;SDS011;48929;47.910;20.390;2023-05-10T12:30:10;5.30;;;2.90;;
62844;SDS011;48929;47.910;20.390;2023-05-10T12:36:30;3.78;;;2.65;;
62844;SDS011;48929;47.910;20.390;2023-05-10T12:39:11;6.22;;;2.80;;
62844;SDS011;48929;47.910;20.390;2023-05-10T12:42:19;5.05;;;2.95;;
62844;SDS011;48929;47.910;20.390;2023-05-10T12:45:04;4.15;;;2.50;;
62844;SDS011;48929;47.910;20.390;2023-05-10T12:47:47;3.42;;;2.63;;
62844;SDS011;48929;47.910;20.390;2023-05-10T12:50:39;6.07;;;2.72;;
62844;SDS011;48929;47.910;20.390;2023-05-10T12:56:53;4.90;;;2.60;;
62844;SDS011;48929;47.910;20.390;2023-05-10T12:59:53;4.95;;;2.70;;
62844;SDS011;48929;47.910;20.390;2023-05-10T13:02:40;4.07;;;2.90;;
62844;SDS011;48929;47.910;20.390;2023-05-10T13:05:57;5.47;;;2.80;;
62844;SDS011;48929;47.910;20.390;2023-05-10T13:11:38;3.75;;;2.40;;
62844;SDS011;48929;47.910;20.390;2023-05-10T13:14:55;3.17;;;2.50;;
62844;SDS011;48929;47.910;20.390;2023-05-10T13:17:47;3.88;;;2.60;;
62844;SDS011;48929;47.910;20.390;2023-05-10T13:20:19;4.30;;;2.42;;
62844;SDS011;48929;47.910;20.390;2023-05-10T13:22:53;5.55;;;2.50;;
62844;SDS011;48929;47.910;20.390;2023-05-10T13:25:23;3.88;;;2.10;;
62844;SDS011;48929;47.910;20.390;2023-05-10T13:27:52;5.55;;;2.55;;
62844;SDS011;48929;47.910;20.390;2023-05-10T13:30:22;3.45;;;2.22;;
62844;SDS011;48929;47.910;20.390;2023-05-10T13:32:52;3.42;;;2.30;;
62844;SDS011;48929;47.910;20.390;2023-05-10T13:35:20;3.40;;;2.30;;
62844;SDS011;48929;47.910;20.390;2023-05-10T13:37:49;2.97;;;2.30;;
62844;SDS011;48929;47.910;20.390;2023-05-10T13:40:22;3.50;;;2.40;;
62844;SDS011;48929;47.910;20.390;2023-05-10T13:42:59;4.35;;;2.30;;
62844;SDS011;48929;47.910;20.390;2023-05-10T13:45:30;4.70;;;2.42;;
62844;SDS011;48929;47.910;20.390;2023-05-10T13:48:09;3.00;;;2.17;;
62844;SDS011;48929;47.910;20.390;2023-05-10T13:50:54;3.25;;;2.30;;
62844;SDS011;48929;47.910;20.390;2023-05-10T13:53:49;4.07;;;2.47;;
62844;SDS011;48929;47.910;20.390;2023-05-10T13:56:31;3.63;;;2.30;;
62844;SDS011;48929;47.910;20.390;2023-05-10T13:59:06;3.33;;;2.35;;
62844;SDS011;48929;47.910;20.390;2023-05-10T14:01:37;3.78;;;2.58;;
62844;SDS011;48929;47.910;20.390;2023-05-10T14:04:06;3.20;;;2.30;;
62844;SDS011;48929;47.910;20.390;2023-05-10T14:06:51;2.63;;;2.10;;
62844;SDS011;48929;47.910;20.390;2023-05-10T14:09:20;3.22;;;2.35;;
62844;SDS011;48929;47.910;20.390;2023-05-10T14:11:57;2.92;;;2.10;;
62844;SDS011;48929;47.910;20.390;2023-05-10T14:14:32;3.65;;;2.10;;
62844;SDS011;48929;47.910;20.390;2023-05-10T14:17:08;4.53;;;2.10;;
62844;SDS011;48929;47.910;20.390;2023-05-10T14:20:05;2.50;;;2.10;;
62844;SDS011;48929;47.910;20.390;2023-05-10T14:22:35;4.10;;;2.17;;
62844;SDS011;48929;47.910;20.390;2023-05-10T14:25:04;3.15;;;2.17;;
62844;SDS011;48929;47.910;20.390;2023-05-10T14:27:37;3.70;;;2.10;;
62844;SDS011;48929;47.910;20.390;2023-05-10T14:30:09;4.72;;;2.20;;
62844;SDS011;48929;47.910;20.390;2023-05-10T14:32:39;3.33;;;2.35;;
62844;SDS011;48929;47.910;20.390;2023-05-10T14:35:28;4.32;;;2.50;;
62844;SDS011;48929;47.910;20.390;2023-05-10T14:38:09;2.97;;;2.17;;
62844;SDS011;48929;47.910;20.390;2023-05-10T14:40:55;4.38;;;2.20;;
62844;SDS011;48929;47.910;20.390;2023-05-10T14:43:26;4.30;;;2.40;;
62844;SDS011;48929;47.910;20.390;2023-05-10T14:45:55;6.15;;;2.28;;
62844;SDS011;48929;47.910;20.390;2023-05-10T14:48:37;3.42;;;2.25;;
62844;SDS011;48929;47.910;20.390;2023-05-10T14:51:14;2.83;;;2.00;;
62844;SDS011;48929;47.910;20.390;2023-05-10T14:53:46;2.57;;;2.13;;
62844;SDS011;48929;47.910;20.390;2023-05-10T14:56:28;4.50;;;2.25;;
62844;SDS011;48929;47.910;20.390;2023-05-10T14:59:23;3.65;;;2.40;;
62844;SDS011;48929;47.910;20.390;2023-05-10T15:02:01;5.43;;;2.22;;
62844;SDS011;48929;47.910;20.390;2023-05-10T15:05:01;4.35;;;2.50;;
62844;SDS011;48929;47.910;20.390;2023-05-10T15:07:38;3.38;;;2.25;;
62844;SDS011;48929;47.910;20.390;2023-05-10T15:11:27;3.00;;;2.45;;
62844;SDS011;48929;47.910;20.390;2023-05-10T15:17:55;4.60;;;2.33;;
62844;SDS011;48929;47.910;20.390;2023-05-10T15:20:38;2.58;;;2.15;;
62844;SDS011;48929;47.910;20.390;2023-05-10T15:23:10;2.78;;;2.10;;
62844;SDS011;48929;47.910;20.390;2023-05-10T15:25:43;4.13;;;2.33;;
62844;SDS011;48929;47.910;20.390;2023-05-10T15:28:12;3.03;;;2.10;;
62844;SDS011;48929;47.910;20.390;2023-05-10T15:30:43;4.57;;;2.20;;
62844;SDS011;48929;47.910;20.390;2023-05-10T15:33:17;4.55;;;2.05;;
62844;SDS011;48929;47.910;20.390;2023-05-10T15:36:04;8.50;;;2.35;;
62844;SDS011;48929;47.910;20.390;2023-05-10T15:38:58;3.38;;;2.33;;
62844;SDS011;48929;47.910;20.390;2023-05-10T15:41:29;3.00;;;2.42;;
62844;SDS011;48929;47.910;20.390;2023-05-10T15:43:59;4.47;;;2.38;;
62844;SDS011;48929;47.910;20.390;2023-05-10T15:46:33;3.53;;;2.42;;
62844;SDS011;48929;47.910;20.390;2023-05-10T15:49:01;3.33;;;2.50;;
62844;SDS011;48929;47.910;20.390;2023-05-10T15:51:37;3.90;;;2.58;;
62844;SDS011;48929;47.910;20.390;2023-05-10T15:54:19;3.50;;;2.38;;
62844;SDS011;48929;47.910;20.390;2023-05-10T15:57:01;3.85;;;2.58;;
62844;SDS011;48929;47.910;20.390;2023-05-10T15:59:31;4.68;;;2.78;;
62844;SDS011;48929;47.910;20.390;2023-05-10T16:02:12;3.13;;;2.20;;
62844;SDS011;48929;47.910;20.390;2023-05-10T16:04:45;4.70;;;2.22;;
62844;SDS011;48929;47.910;20.390;2023-05-10T16:07:23;3.08;;;2.45;;
62844;SDS011;48929;47.910;20.390;2023-05-10T16:09:51;3.65;;;2.28;;
62844;SDS011;48929;47.910;20.390;2023-05-10T16:12:23;2.72;;;2.10;;
62844;SDS011;48929;47.910;20.390;2023-05-10T16:15:01;2.67;;;2.03;;
62844;SDS011;48929;47.910;20.390;2023-05-10T16:17:36;4.57;;;2.88;;
62844;SDS011;48929;47.910;20.390;2023-05-10T16:20:12;3.45;;;2.05;;
62844;SDS011;48929;47.910;20.390;2023-05-10T16:22:44;3.22;;;2.05;;
62844;SDS011;48929;47.910;20.390;2023-05-10T16:25:13;3.47;;;2.20;;
62844;SDS011;48929;47.910;20.390;2023-05-10T16:27:42;2.42;;;2.00;;
62844;SDS011;48929;47.910;20.390;2023-05-10T16:30:11;2.95;;;2.20;;
62844;SDS011;48929;47.910;20.390;2023-05-10T16:36:30;3.20;;;1.95;;
62844;SDS011;48929;47.910;20.390;2023-05-10T16:39:07;4.03;;;2.20;;
62844;SDS011;48929;47.910;20.390;2023-05-10T16:41:41;4.22;;;2.28;;
62844;SDS011;48929;47.910;20.390;2023-05-10T16:44:10;4.57;;;2.20;;
62844;SDS011;48929;47.910;20.390;2023-05-10T16:46:39;4.03;;;2.22;;
62844;SDS011;48929;47.910;20.390;2023-05-10T16:49:09;2.65;;;2.20;;
62844;SDS011;48929;47.910;20.390;2023-05-10T16:51:38;4.72;;;2.30;;
62844;SDS011;48929;47.910;20.390;2023-05-10T16:54:11;3.10;;;2.20;;
62844;SDS011;48929;47.910;20.390;2023-05-10T16:56:40;3.25;;;1.92;;
62844;SDS011;48929;47.910;20.390;2023-05-10T16:59:11;2.75;;;2.30;;
62844;SDS011;48929;47.910;20.390;2023-05-10T17:01:40;3.03;;;2.28;;
62844;SDS011;48929;47.910;20.390;2023-05-10T17:04:11;3.28;;;1.92;;
62844;SDS011;48929;47.910;20.390;2023-05-10T17:06:40;4.97;;;2.30;;
62844;SDS011;48929;47.910;20.390;2023-05-10T17:09:09;4.57;;;2.40;;
62844;SDS011;48929;47.910;20.390;2023-05-10T17:11:41;3.30;;;2.50;;
62844;SDS011;48929;47.910;20.390;2023-05-10T17:14:10;4.18;;;2.40;;
62844;SDS011;48929;47.910;20.390;2023-05-10T17:17:09;4.60;;;2.40;;
62844;SDS011;48929;47.910;20.390;2023-05-10T17:19:41;3.80;;;2.35;;
62844;SDS011;48929;47.910;20.390;2023-05-10T17:22:25;4.93;;;2.30;;